createdAt,value
2019-01-29T00:01:01.631Z,97.10
2019-01-29T00:03:29.088Z,97.10
2019-01-29T00:05:56.491Z,97.10
2019-01-29T00:08:23.803Z,97.10
2019-01-29T00:10:51.143Z,97.50
2019-01-29T00:13:18.355Z,97.10
2019-01-29T00:15:45.684Z,97.20
2019-01-29T00:18:13.029Z,97.20
2019-01-29T00:20:40.350Z,97.30
2019-01-29T00:23:07.573Z,97.40
2019-01-29T00:25:34.930Z,97.40
2019-01-29T00:28:02.249Z,97.50
2019-01-29T00:30:29.534Z,97.60
2019-01-29T00:32:56.899Z,97.70
2019-01-29T00:35:24.203Z,97.70
2019-01-29T00:37:51.424Z,97.80
2019-01-29T00:40:18.767Z,97.80
2019-01-29T00:42:46.053Z,97.90
2019-01-29T00:45:13.381Z,97.90
2019-01-29T00:47:40.709Z,97.90
2019-01-29T00:50:08.367Z,97.90
2019-01-29T00:52:41.837Z,97.90
2019-01-29T00:55:05.870Z,98.00
2019-01-29T00:57:33.159Z,98.00
2019-01-29T01:00:00.583Z,97.90
2019-01-29T01:02:27.910Z,98.00
2019-01-29T01:04:55.123Z,98.00
2019-01-29T01:07:22.348Z,98.00
2019-01-29T01:09:57.061Z,98.00
2019-01-29T01:12:18.882Z,98.00
2019-01-29T01:14:46.079Z,98.40
2019-01-29T01:17:13.411Z,98.10
2019-01-29T01:19:40.706Z,98.10
2019-01-29T01:22:08.135Z,98.10
2019-01-29T01:24:35.519Z,98.10
2019-01-29T01:27:02.835Z,98.20
2019-01-29T01:29:33.129Z,98.20
2019-01-29T01:32:00.391Z,98.20
2019-01-29T01:34:27.713Z,98.20
2019-01-29T01:36:55.039Z,98.20
2019-01-29T01:39:22.276Z,98.20
2019-01-29T01:41:49.563Z,98.20
2019-01-29T01:44:16.785Z,98.20
2019-01-29T01:46:44.013Z,98.30
2019-01-29T01:49:11.341Z,98.30
2019-01-29T01:51:38.648Z,98.40
2019-01-29T01:54:05.962Z,98.50
2019-01-29T01:56:33.157Z,98.50
2019-01-29T01:59:00.473Z,98.50
2019-01-29T02:01:27.697Z,98.40
2019-01-29T02:03:54.909Z,98.40
2019-01-29T02:06:22.129Z,98.40
2019-01-29T02:08:49.456Z,98.40
2019-01-29T02:11:16.816Z,98.30
2019-01-29T02:13:44.125Z,98.70
2019-01-29T02:16:11.394Z,98.30
2019-01-29T02:18:38.633Z,98.70
2019-01-29T02:21:05.962Z,98.30
2019-01-29T02:23:33.192Z,98.30
2019-01-29T02:26:00.484Z,98.30
2019-01-29T02:28:27.712Z,98.30
2019-01-29T02:30:55.080Z,98.30
2019-01-29T02:33:24.968Z,98.70
2019-01-29T02:35:51.473Z,98.30
2019-01-29T02:38:18.842Z,98.20
2019-01-29T02:40:46.082Z,98.20
2019-01-29T02:43:13.337Z,98.20
2019-01-29T02:45:40.648Z,98.20
2019-01-29T02:48:07.884Z,98.20
2019-01-29T02:50:35.233Z,98.10
2019-01-29T02:53:02.559Z,98.10
2019-01-29T02:55:29.950Z,98.00
2019-01-29T02:57:57.302Z,98.00
2019-01-29T03:00:25.984Z,98.00
2019-01-29T03:02:53.328Z,98.00
2019-01-29T03:05:20.668Z,98.00
2019-01-29T03:07:48.191Z,98.00
2019-01-29T03:10:17.590Z,97.90
2019-01-29T03:12:44.858Z,97.90
2019-01-29T03:15:15.396Z,97.90
2019-01-29T03:17:42.622Z,97.90
2019-01-29T03:20:10.182Z,97.80
2019-01-29T03:22:37.441Z,97.80
2019-01-29T03:25:05.159Z,97.70
2019-01-29T03:27:32.496Z,97.70
2019-01-29T03:29:59.905Z,97.70
2019-01-29T03:32:27.224Z,97.60
2019-01-29T03:34:54.524Z,97.60
2019-01-29T03:37:21.886Z,97.50
2019-01-29T03:39:49.220Z,97.50
2019-01-29T03:42:17.152Z,97.50
2019-01-29T03:44:44.508Z,97.50
2019-01-29T03:47:11.875Z,97.40
2019-01-29T03:49:39.129Z,97.50
2019-01-29T03:52:06.481Z,97.50
2019-01-29T03:54:33.789Z,97.60
2019-01-29T03:57:01.001Z,97.60
2019-01-29T03:59:28.339Z,97.70
2019-01-29T04:01:55.748Z,97.70
2019-01-29T04:04:23.163Z,97.70
2019-01-29T04:06:50.507Z,97.70
2019-01-29T04:09:17.837Z,97.70
2019-01-29T04:11:45.037Z,97.60
2019-01-29T04:14:12.385Z,97.70
2019-01-29T04:16:39.620Z,97.70
2019-01-29T04:19:06.838Z,97.70
2019-01-29T04:21:34.198Z,97.70
2019-01-29T04:24:01.633Z,97.70
2019-01-29T04:26:29.025Z,97.70
2019-01-29T04:28:56.266Z,97.80
2019-01-29T04:31:23.635Z,97.80
2019-01-29T04:33:50.942Z,97.80
2019-01-29T04:36:18.269Z,97.80
2019-01-29T04:38:45.576Z,97.90
2019-01-29T04:41:12.793Z,97.90
2019-01-29T04:43:40.155Z,98.00
2019-01-29T04:46:07.470Z,98.00
2019-01-29T04:48:34.681Z,98.00
2019-01-29T04:51:02.038Z,98.00
2019-01-29T04:53:29.450Z,98.00
2019-01-29T04:55:56.752Z,98.00
2019-01-29T04:58:24.080Z,98.00
2019-01-29T05:00:51.419Z,98.00
2019-01-29T05:03:18.737Z,98.10
2019-01-29T05:05:46.084Z,98.10
2019-01-29T05:08:13.269Z,98.10
2019-01-29T05:10:40.581Z,98.20
2019-01-29T05:13:07.906Z,98.10
2019-01-29T05:15:35.200Z,98.20
2019-01-29T05:18:02.434Z,98.20
2019-01-29T05:20:29.767Z,98.20
2019-01-29T05:22:57.070Z,98.20
2019-01-29T05:25:24.370Z,98.20
2019-01-29T05:27:51.622Z,98.20
2019-01-29T05:30:21.172Z,98.20
2019-01-29T05:32:48.539Z,98.20
2019-01-29T05:35:15.898Z,98.20
2019-01-29T05:37:43.202Z,98.20
2019-01-29T05:40:12.696Z,98.20
2019-01-29T05:42:39.938Z,98.20
2019-01-29T05:45:08.919Z,98.20
2019-01-29T05:47:36.220Z,98.10
2019-01-29T05:50:04.729Z,98.10
2019-01-29T05:52:32.036Z,98.00
2019-01-29T05:54:59.752Z,98.00
2019-01-29T05:57:27.076Z,98.00
2019-01-29T05:59:54.385Z,98.00
2019-01-29T06:02:21.697Z,97.90
2019-01-29T06:04:48.928Z,97.80
2019-01-29T06:07:16.246Z,97.70
2019-01-29T06:09:43.557Z,97.70
2019-01-29T06:12:10.999Z,97.70
2019-01-29T06:14:38.346Z,97.70
2019-01-29T06:17:05.736Z,97.60
2019-01-29T06:19:33.188Z,97.60
2019-01-29T06:22:00.506Z,97.60
2019-01-29T06:24:27.819Z,97.60
2019-01-29T06:26:55.046Z,97.60
2019-01-29T06:29:22.352Z,97.60
2019-01-29T06:31:49.648Z,97.60
2019-01-29T06:34:16.966Z,97.60
2019-01-29T06:36:44.273Z,97.60
2019-01-29T06:39:11.476Z,97.60
2019-01-29T06:41:38.826Z,97.60
2019-01-29T06:44:06.157Z,97.50
2019-01-29T06:46:33.472Z,97.50
2019-01-29T06:49:00.677Z,97.50
2019-01-29T06:51:29.461Z,97.50
2019-01-29T06:53:56.825Z,97.50
2019-01-29T06:56:24.237Z,97.50
2019-01-29T06:58:51.645Z,97.60
2019-01-29T07:01:18.985Z,97.50
2019-01-29T07:03:46.322Z,97.60
2019-01-29T07:06:13.563Z,97.60
2019-01-29T07:08:40.844Z,97.60
2019-01-29T07:11:08.200Z,97.60
2019-01-29T07:13:35.598Z,97.60
2019-01-29T07:16:28.348Z,97.60
2019-01-29T07:19:00.636Z,97.60
2019-01-29T07:21:27.996Z,97.50
2019-01-29T07:23:55.326Z,97.40
2019-01-29T07:26:22.578Z,97.40
2019-01-29T07:28:49.883Z,97.40
2019-01-29T07:31:17.312Z,97.30
2019-01-29T07:33:44.644Z,97.30
2019-01-29T07:36:11.959Z,97.20
2019-01-29T07:38:39.311Z,97.20
2019-01-29T07:41:06.626Z,97.10
2019-01-29T07:43:33.868Z,97.10
2019-01-29T07:46:01.432Z,97.00
2019-01-29T07:48:28.832Z,97.00
2019-01-29T07:50:56.108Z,97.00
2019-01-29T07:53:23.428Z,96.90
2019-01-29T07:55:50.833Z,96.90
2019-01-29T07:58:18.137Z,96.80
2019-01-29T08:00:45.481Z,96.70
2019-01-29T08:03:12.777Z,96.60
2019-01-29T08:05:39.989Z,96.50
2019-01-29T08:08:07.325Z,96.50
2019-01-29T08:10:34.624Z,96.40
2019-01-29T08:13:01.821Z,96.40
2019-01-29T08:15:29.197Z,96.30
2019-01-29T08:17:56.401Z,96.30
2019-01-29T08:20:23.607Z,96.10
2019-01-29T08:22:50.957Z,96.10
2019-01-29T08:25:18.302Z,96.00
2019-01-29T08:27:45.485Z,95.90
2019-01-29T08:30:12.869Z,95.90
2019-01-29T08:32:40.115Z,95.80
2019-01-29T08:35:07.793Z,95.60
2019-01-29T08:37:35.140Z,95.50
2019-01-29T08:40:02.552Z,95.40
2019-01-29T08:42:29.893Z,95.30
2019-01-29T08:44:57.165Z,95.10
2019-01-29T08:47:24.497Z,95.10
2019-01-29T08:49:51.721Z,95.00
2019-01-29T08:52:19.070Z,94.90
2019-01-29T08:54:46.276Z,94.70
2019-01-29T08:57:13.619Z,94.60
2019-01-29T08:59:41.012Z,94.50
2019-01-29T09:02:08.376Z,94.40
2019-01-29T09:04:35.722Z,94.30
2019-01-29T09:07:03.051Z,94.20
2019-01-29T09:09:30.361Z,94.10
2019-01-29T09:11:57.842Z,94.10
2019-01-29T09:14:25.161Z,94.20
2019-01-29T09:16:52.367Z,94.20
2019-01-29T09:19:19.667Z,94.20
2019-01-29T09:21:47.054Z,94.20
2019-01-29T09:24:14.373Z,94.20
2019-01-29T09:26:41.574Z,94.00
2019-01-29T09:29:17.488Z,93.90
2019-01-29T09:31:37.908Z,94.00
2019-01-29T09:34:05.209Z,94.50
2019-01-29T09:36:34.023Z,94.00
2019-01-29T09:39:01.475Z,94.00
2019-01-29T09:41:28.709Z,93.80
2019-01-29T09:43:56.043Z,93.50
2019-01-29T09:46:23.538Z,92.70
2019-01-29T09:48:50.853Z,87.20
2019-01-29T09:51:18.306Z,77.30
2019-01-29T09:53:45.515Z,69.80
2019-01-29T09:56:12.795Z,62.80
2019-01-29T09:58:40.047Z,57.10
2019-01-29T10:01:07.263Z,54.50
2019-01-29T10:03:34.465Z,50.20
2019-01-29T10:06:01.788Z,46.00
2019-01-29T10:08:29.082Z,44.30
2019-01-29T10:10:56.305Z,41.60
2019-01-29T10:13:23.682Z,39.70
2019-01-29T10:15:51.008Z,38.40
2019-01-29T10:18:18.436Z,36.80
2019-01-29T10:20:45.656Z,34.90
2019-01-29T10:23:12.840Z,32.30
2019-01-29T10:25:40.150Z,31.00
2019-01-29T10:28:07.486Z,30.30
2019-01-29T10:30:34.801Z,30.60
2019-01-29T10:33:02.108Z,29.60
2019-01-29T10:35:29.465Z,29.70
2019-01-29T10:37:56.914Z,29.30
2019-01-29T10:40:24.837Z,30.20
2019-01-29T10:42:52.367Z,32.40
2019-01-29T10:45:20.469Z,34.20
2019-01-29T10:47:47.761Z,35.20
2019-01-29T10:50:17.478Z,36.10
2019-01-29T10:52:44.785Z,39.50
2019-01-29T10:55:12.099Z,43.20
2019-01-29T10:57:39.449Z,45.60
2019-01-29T11:00:12.081Z,44.60
2019-01-29T11:02:39.324Z,44.60
2019-01-29T11:05:07.244Z,46.10
2019-01-29T11:07:34.558Z,45.30
2019-01-29T11:10:02.009Z,43.80
2019-01-29T11:12:29.249Z,43.10
2019-01-29T11:14:56.601Z,42.70
2019-01-29T11:17:23.939Z,42.00
2019-01-29T11:19:51.253Z,41.40
2019-01-29T11:22:18.586Z,40.50
2019-01-29T11:24:45.779Z,40.20
2019-01-29T11:27:13.136Z,40.20
2019-01-29T11:29:40.332Z,40.40
2019-01-29T11:32:07.637Z,41.80
2019-01-29T11:34:35.000Z,42.50
2019-01-29T11:37:02.313Z,44.10
2019-01-29T11:39:29.652Z,44.80
2019-01-29T11:41:57.045Z,45.50
2019-01-29T11:44:24.257Z,45.70
2019-01-29T11:46:51.569Z,45.20
2019-01-29T11:49:18.925Z,44.30
2019-01-29T11:51:46.227Z,43.60
2019-01-29T11:54:13.436Z,42.90
2019-01-29T11:56:40.668Z,42.30
2019-01-29T11:59:07.968Z,41.90
2019-01-29T12:01:35.269Z,42.10
2019-01-29T12:04:02.676Z,42.10
2019-01-29T12:06:29.992Z,42.20
2019-01-29T12:08:57.212Z,41.80
2019-01-29T12:11:24.752Z,41.90
2019-01-29T12:13:51.969Z,42.40
2019-01-29T12:16:19.586Z,44.30
2019-01-29T12:18:47.019Z,45.80
2019-01-29T12:21:14.349Z,47.50
2019-01-29T12:23:41.545Z,48.70
2019-01-29T12:26:13.160Z,49.50
2019-01-29T12:28:37.998Z,48.60
2019-01-29T12:31:05.317Z,48.30
2019-01-29T12:33:32.655Z,48.60
2019-01-29T12:35:59.877Z,49.50
2019-01-29T12:38:27.266Z,50.30
2019-01-29T12:40:54.601Z,51.20
2019-01-29T12:43:21.907Z,51.80
2019-01-29T12:45:49.151Z,51.80
2019-01-29T12:48:16.541Z,52.00
2019-01-29T12:50:49.409Z,52.50
2019-01-29T12:53:18.965Z,52.80
2019-01-29T12:55:46.308Z,52.90
2019-01-29T12:58:13.615Z,53.10
2019-01-29T13:00:44.681Z,53.00
2019-01-29T13:03:11.912Z,52.30
2019-01-29T13:05:39.213Z,51.80
2019-01-29T13:08:08.442Z,51.70
2019-01-29T13:10:35.762Z,51.60
2019-01-29T13:13:03.666Z,51.70
2019-01-29T13:15:31.130Z,52.20
2019-01-29T13:17:58.483Z,52.20
2019-01-29T13:20:26.657Z,52.20
2019-01-29T13:22:53.985Z,52.50
2019-01-29T13:25:21.361Z,52.80
2019-01-29T13:27:48.709Z,53.10
2019-01-29T13:30:22.287Z,53.20
2019-01-29T13:33:06.444Z,53.00
2019-01-29T13:35:36.257Z,53.50
2019-01-29T13:38:04.105Z,54.00
2019-01-29T13:40:31.443Z,54.40
2019-01-29T13:42:58.681Z,54.20
2019-01-29T13:45:26.004Z,54.50
2019-01-29T13:47:53.340Z,54.50
2019-01-29T13:50:30.059Z,54.00
2019-01-29T13:52:57.361Z,54.40
2019-01-29T13:55:24.570Z,54.30
2019-01-29T13:57:51.921Z,55.00
2019-01-29T14:00:24.683Z,55.80
2019-01-29T14:02:52.022Z,56.10
2019-01-29T14:05:19.464Z,55.60
2019-01-29T14:07:46.835Z,55.50
2019-01-29T14:10:14.169Z,56.20
2019-01-29T14:12:41.620Z,56.70
2019-01-29T14:15:12.598Z,57.60
2019-01-29T14:17:39.936Z,58.70
2019-01-29T14:20:11.288Z,59.70
2019-01-29T14:22:38.604Z,60.30
2019-01-29T14:25:06.036Z,60.70
2019-01-29T14:27:33.457Z,61.20
2019-01-29T14:30:00.769Z,61.80
2019-01-29T14:32:28.105Z,62.40
2019-01-29T14:34:55.475Z,63.10
2019-01-29T14:37:22.777Z,63.30
2019-01-29T14:40:17.545Z,63.20
2019-01-29T14:42:46.643Z,63.00
2019-01-29T14:45:20.940Z,64.00
2019-01-29T14:47:48.225Z,64.00
2019-01-29T14:50:15.857Z,63.50
2019-01-29T14:52:43.206Z,64.30
2019-01-29T14:55:10.621Z,64.40
2019-01-29T14:57:37.980Z,64.40
2019-01-29T15:00:11.000Z,64.50
2019-01-29T15:02:38.326Z,64.80
2019-01-29T15:05:05.965Z,64.90
2019-01-29T15:07:33.293Z,65.30
2019-01-29T15:10:00.689Z,66.00
2019-01-29T15:12:28.019Z,66.50
2019-01-29T15:14:55.571Z,66.70
2019-01-29T15:17:40.846Z,66.80
2019-01-29T15:20:09.450Z,66.60
2019-01-29T15:22:36.745Z,66.80
2019-01-29T15:25:04.997Z,66.50
2019-01-29T15:27:32.415Z,64.70
2019-01-29T15:29:59.725Z,64.10
2019-01-29T15:32:27.019Z,64.00
2019-01-29T15:34:54.351Z,64.20
2019-01-29T15:37:21.679Z,64.60
2019-01-29T15:39:48.887Z,65.00
2019-01-29T15:42:16.219Z,65.00
2019-01-29T15:44:43.443Z,65.00
2019-01-29T15:47:10.757Z,65.40
2019-01-29T15:49:38.092Z,65.50
2019-01-29T15:52:05.447Z,65.50
2019-01-29T15:54:34.467Z,66.50
2019-01-29T15:57:01.798Z,65.50
2019-01-29T15:59:29.055Z,65.40
2019-01-29T16:01:56.478Z,65.60
2019-01-29T16:04:23.725Z,65.90
2019-01-29T16:06:51.457Z,66.10
2019-01-29T16:09:18.760Z,66.30
2019-01-29T16:11:46.115Z,66.30
2019-01-29T16:14:13.437Z,66.60
2019-01-29T16:16:40.801Z,66.90
2019-01-29T16:19:08.136Z,67.10
2019-01-29T16:21:35.450Z,67.30
2019-01-29T16:24:03.064Z,67.40
2019-01-29T16:26:31.324Z,67.30
2019-01-29T16:28:58.573Z,67.50
2019-01-29T16:31:25.916Z,67.80
2019-01-29T16:33:53.327Z,68.30
2019-01-29T16:36:20.708Z,68.70
2019-01-29T16:38:48.013Z,69.20
2019-01-29T16:41:15.412Z,69.40
2019-01-29T16:43:42.741Z,69.90
2019-01-29T16:46:09.949Z,70.20
2019-01-29T16:48:37.239Z,70.50
2019-01-29T16:51:04.677Z,70.80
2019-01-29T16:53:31.991Z,71.20
2019-01-29T16:55:59.353Z,71.40
2019-01-29T16:58:26.648Z,71.60
2019-01-29T17:00:53.969Z,72.00
2019-01-29T17:03:21.295Z,72.40
2019-01-29T17:05:48.618Z,72.70
2019-01-29T17:08:15.933Z,73.00
2019-01-29T17:10:43.258Z,74.10
2019-01-29T17:13:10.559Z,73.70
2019-01-29T17:15:37.934Z,74.10
2019-01-29T17:18:05.509Z,74.40
2019-01-29T17:20:35.032Z,74.60
2019-01-29T17:23:02.821Z,74.90
2019-01-29T17:25:30.138Z,75.30
2019-01-29T17:27:57.457Z,75.40
2019-01-29T17:30:32.697Z,75.60
2019-01-29T17:33:00.081Z,75.80
2019-01-29T17:35:27.417Z,75.90
2019-01-29T17:37:54.821Z,76.10
2019-01-29T17:40:22.663Z,76.20
2019-01-29T17:42:50.041Z,76.50
2019-01-29T17:45:20.465Z,76.80
2019-01-29T17:47:47.777Z,77.10
2019-01-29T17:50:18.633Z,77.30
2019-01-29T17:52:47.056Z,77.40
2019-01-29T17:55:14.520Z,77.50
2019-01-29T17:57:50.485Z,77.70
2019-01-29T18:00:14.457Z,77.90
2019-01-29T18:02:41.760Z,78.10
2019-01-29T18:05:09.160Z,78.40
2019-01-29T18:07:36.490Z,78.70
2019-01-29T18:10:05.292Z,78.80
2019-01-29T18:12:32.590Z,79.70
2019-01-29T18:14:59.951Z,79.00
2019-01-29T18:17:27.240Z,79.30
2019-01-29T18:19:54.571Z,79.60
2019-01-29T18:22:21.928Z,79.70
2019-01-29T18:24:49.231Z,79.90
2019-01-29T18:27:16.541Z,80.20
2019-01-29T18:29:43.945Z,80.50
2019-01-29T18:32:11.296Z,80.60
2019-01-29T18:34:38.619Z,80.70
2019-01-29T18:37:05.970Z,80.90
2019-01-29T18:39:33.313Z,81.10
2019-01-29T18:42:00.664Z,81.10
2019-01-29T18:44:28.064Z,81.50
2019-01-29T18:46:55.405Z,81.70
2019-01-29T18:49:22.640Z,82.10
2019-01-29T18:51:50.083Z,82.40
2019-01-29T18:54:17.529Z,82.50
2019-01-29T18:56:44.898Z,82.90
2019-01-29T18:59:12.597Z,83.00
2019-01-29T19:01:40.222Z,83.30
2019-01-29T19:04:07.487Z,83.50
2019-01-29T19:06:35.182Z,83.60
2019-01-29T19:09:04.561Z,83.90
2019-01-29T19:11:31.997Z,83.90
2019-01-29T19:13:59.383Z,84.00
2019-01-29T19:16:26.717Z,84.30
2019-01-29T19:18:53.989Z,84.60
2019-01-29T19:21:21.446Z,84.60
2019-01-29T19:23:48.805Z,84.70
2019-01-29T19:26:16.215Z,84.90
2019-01-29T19:28:43.538Z,85.00
2019-01-29T19:31:10.894Z,85.20
2019-01-29T19:33:38.245Z,85.40
2019-01-29T19:36:05.624Z,85.70
2019-01-29T19:38:32.880Z,85.80
2019-01-29T19:41:00.253Z,85.90
2019-01-29T19:43:27.594Z,86.20
2019-01-29T19:45:54.932Z,86.50
2019-01-29T19:48:22.274Z,86.40
2019-01-29T19:50:49.602Z,86.80
2019-01-29T19:53:17.037Z,87.00
2019-01-29T19:55:44.529Z,87.10
2019-01-29T19:58:11.794Z,87.10
2019-01-29T20:00:40.854Z,87.30
2019-01-29T20:03:08.526Z,87.40
2019-01-29T20:05:35.824Z,87.30
2019-01-29T20:08:03.655Z,87.40
2019-01-29T20:10:31.122Z,87.40
2019-01-29T20:12:58.454Z,87.30
2019-01-29T20:15:25.708Z,87.20
2019-01-29T20:17:53.392Z,87.10
2019-01-29T20:20:23.130Z,87.00
2019-01-29T20:22:50.635Z,86.80
2019-01-29T20:25:18.043Z,86.60
2019-01-29T20:27:45.393Z,86.50
2019-01-29T20:30:15.746Z,86.40
2019-01-29T20:32:52.929Z,86.20
2019-01-29T20:35:12.410Z,86.00
2019-01-29T20:37:39.754Z,85.90
2019-01-29T20:40:09.183Z,85.80
2019-01-29T20:42:36.533Z,85.80
2019-01-29T20:45:04.873Z,85.80
2019-01-29T20:47:32.304Z,85.70
2019-01-29T20:49:59.687Z,85.60
2019-01-29T20:52:27.040Z,85.40
2019-01-29T20:54:54.422Z,85.20
2019-01-29T20:57:21.811Z,85.20
2019-01-29T20:59:49.160Z,85.10
2019-01-29T21:02:16.507Z,84.80
2019-01-29T21:04:43.867Z,84.60
2019-01-29T21:07:11.557Z,84.40
2019-01-29T21:09:39.099Z,84.20
2019-01-29T21:12:06.849Z,83.90
2019-01-29T21:14:34.290Z,83.50
2019-01-29T21:17:01.801Z,83.30
2019-01-29T21:19:29.219Z,83.20
2019-01-29T21:21:56.575Z,82.70
2019-01-29T21:24:23.928Z,82.50
2019-01-29T21:26:51.273Z,82.40
2019-01-29T21:29:18.599Z,82.40
2019-01-29T21:31:45.957Z,82.20
2019-01-29T21:34:13.318Z,82.30
2019-01-29T21:36:40.675Z,82.50
2019-01-29T21:39:08.559Z,82.50
2019-01-29T21:41:35.823Z,82.50
2019-01-29T21:44:03.163Z,82.50
2019-01-29T21:46:30.581Z,82.50
2019-01-29T21:48:58.002Z,82.70
2019-01-29T21:51:25.405Z,82.80
2019-01-29T21:53:52.769Z,82.90
2019-01-29T21:56:19.995Z,83.10
2019-01-29T21:58:47.318Z,83.40
2019-01-29T22:01:14.661Z,83.70
2019-01-29T22:03:42.063Z,84.00
2019-01-29T22:06:09.391Z,84.20
2019-01-29T22:08:36.725Z,84.30
2019-01-29T22:11:04.081Z,84.50
2019-01-29T22:13:31.283Z,84.70
2019-01-29T22:15:58.636Z,84.90
2019-01-29T22:18:26.009Z,85.10
2019-01-29T22:20:53.308Z,85.10
2019-01-29T22:23:20.667Z,85.20
2019-01-29T22:25:47.983Z,85.30
2019-01-29T22:28:15.361Z,85.50
2019-01-29T22:30:42.788Z,85.80
2019-01-29T22:33:10.176Z,86.00
2019-01-29T22:35:37.597Z,86.10
2019-01-29T22:38:05.223Z,86.30
2019-01-29T22:40:32.524Z,86.50
2019-01-29T22:42:59.867Z,86.70
2019-01-29T22:45:27.213Z,86.90
2019-01-29T22:47:54.594Z,87.00
2019-01-29T22:50:26.687Z,87.30
2019-01-29T22:52:54.098Z,87.40
2019-01-29T22:55:21.462Z,87.50
2019-01-29T22:57:48.876Z,87.70
2019-01-29T23:00:28.900Z,87.70
2019-01-29T23:02:56.156Z,87.80
2019-01-29T23:05:23.501Z,87.90
2019-01-29T23:07:50.889Z,88.70
2019-01-29T23:10:19.160Z,88.00
2019-01-29T23:12:46.499Z,88.10
2019-01-29T23:15:15.020Z,88.20
2019-01-29T23:17:42.320Z,88.30
2019-01-29T23:20:10.402Z,88.40
2019-01-29T23:22:37.696Z,88.50
2019-01-29T23:25:06.468Z,88.60
2019-01-29T23:27:33.792Z,88.60
2019-01-29T23:30:01.128Z,88.60
2019-01-29T23:32:28.473Z,88.60
2019-01-29T23:34:55.712Z,88.70
2019-01-29T23:37:23.069Z,88.60
2019-01-29T23:39:50.429Z,88.60
2019-01-29T23:42:17.727Z,88.60
2019-01-29T23:44:45.086Z,88.60
2019-01-29T23:47:12.431Z,88.60
2019-01-29T23:49:39.855Z,88.60
2019-01-29T23:52:07.181Z,88.50
2019-01-29T23:54:34.516Z,88.50
2019-01-29T23:57:01.835Z,88.60
2019-01-29T23:59:29.194Z,88.60
